sensor_id;sensor_type;location;lat;lon;timestamp;pressure;altitude;pressure_sealevel;temperature
41593;BMP180;28026;48.562;14.440;2023-03-23T00:01:43;93351.00;;;17.80
41593;BMP180;28026;48.562;14.440;2023-03-23T00:04:14;93358.00;;;17.70
41593;BMP180;28026;48.562;14.440;2023-03-23T00:06:45;93356.00;;;17.70
41593;BMP180;28026;48.562;14.440;2023-03-23T00:09:16;93354.00;;;17.70
41593;BMP180;28026;48.562;14.440;2023-03-23T00:11:47;93352.00;;;17.70
41593;BMP180;28026;48.562;14.440;2023-03-23T00:14:18;93347.00;;;17.70
41593;BMP180;28026;48.562;14.440;2023-03-23T00:16:52;93356.00;;;17.70
41593;BMP180;28026;48.562;14.440;2023-03-23T00:19:23;93344.00;;;17.70
41593;BMP180;28026;48.562;14.440;2023-03-23T00:21:54;93339.00;;;17.70
41593;BMP180;28026;48.562;14.440;2023-03-23T00:24:25;93351.00;;;17.70
41593;BMP180;28026;48.562;14.440;2023-03-23T00:26:56;93347.00;;;17.70
41593;BMP180;28026;48.562;14.440;2023-03-23T00:29:29;93338.00;;;17.70
41593;BMP180;28026;48.562;14.440;2023-03-23T00:32:00;93340.00;;;17.70
41593;BMP180;28026;48.562;14.440;2023-03-23T00:34:32;93343.00;;;17.60
41593;BMP180;28026;48.562;14.440;2023-03-23T00:37:05;93339.00;;;17.60
41593;BMP180;28026;48.562;14.440;2023-03-23T00:39:38;93342.00;;;17.60
41593;BMP180;28026;48.562;14.440;2023-03-23T00:42:09;93335.00;;;17.60
41593;BMP180;28026;48.562;14.440;2023-03-23T00:44:40;93326.00;;;17.60
41593;BMP180;28026;48.562;14.440;2023-03-23T00:47:12;93327.00;;;17.60
41593;BMP180;28026;48.562;14.440;2023-03-23T00:49:44;93338.00;;;17.60
41593;BMP180;28026;48.562;14.440;2023-03-23T00:52:15;93329.00;;;17.60
41593;BMP180;28026;48.562;14.440;2023-03-23T00:54:46;93327.00;;;17.60
41593;BMP180;28026;48.562;14.440;2023-03-23T00:57:17;93328.00;;;17.60
41593;BMP180;28026;48.562;14.440;2023-03-23T00:59:48;93320.00;;;17.50
41593;BMP180;28026;48.562;14.440;2023-03-23T01:02:19;93319.00;;;17.50
41593;BMP180;28026;48.562;14.440;2023-03-23T01:04:51;93319.00;;;17.50
41593;BMP180;28026;48.562;14.440;2023-03-23T01:07:24;93316.00;;;17.50
41593;BMP180;28026;48.562;14.440;2023-03-23T01:09:58;93316.00;;;17.50
41593;BMP180;28026;48.562;14.440;2023-03-23T01:12:30;93306.00;;;17.40
41593;BMP180;28026;48.562;14.440;2023-03-23T01:15:01;93307.00;;;17.40
41593;BMP180;28026;48.562;14.440;2023-03-23T01:17:32;93304.00;;;17.40
41593;BMP180;28026;48.562;14.440;2023-03-23T01:20:04;93300.00;;;17.30
41593;BMP180;28026;48.562;14.440;2023-03-23T01:22:38;93294.00;;;17.30
41593;BMP180;28026;48.562;14.440;2023-03-23T01:25:12;93301.00;;;17.30
41593;BMP180;28026;48.562;14.440;2023-03-23T01:27:44;93302.00;;;17.20
41593;BMP180;28026;48.562;14.440;2023-03-23T01:30:15;93294.00;;;17.20
41593;BMP180;28026;48.562;14.440;2023-03-23T01:32:46;93302.00;;;17.20
41593;BMP180;28026;48.562;14.440;2023-03-23T01:35:17;93296.00;;;17.20
41593;BMP180;28026;48.562;14.440;2023-03-23T01:37:48;93290.00;;;17.20
41593;BMP180;28026;48.562;14.440;2023-03-23T01:40:19;93285.00;;;17.20
41593;BMP180;28026;48.562;14.440;2023-03-23T01:42:50;93300.00;;;17.20
41593;BMP180;28026;48.562;14.440;2023-03-23T01:45:35;93297.00;;;17.20
41593;BMP180;28026;48.562;14.440;2023-03-23T01:48:23;93291.00;;;17.20
41593;BMP180;28026;48.562;14.440;2023-03-23T01:51:07;93291.00;;;17.10
41593;BMP180;28026;48.562;14.440;2023-03-23T01:54:02;93273.00;;;17.10
41593;BMP180;28026;48.562;14.440;2023-03-23T01:56:46;93273.00;;;17.10
41593;BMP180;28026;48.562;14.440;2023-03-23T01:59:23;93280.00;;;17.10
41593;BMP180;28026;48.562;14.440;2023-03-23T02:01:56;93275.00;;;17.10
41593;BMP180;28026;48.562;14.440;2023-03-23T02:04:28;93266.00;;;17.10
41593;BMP180;28026;48.562;14.440;2023-03-23T02:07:01;93276.00;;;17.10
41593;BMP180;28026;48.562;14.440;2023-03-23T02:09:34;93276.00;;;17.10
41593;BMP180;28026;48.562;14.440;2023-03-23T02:12:06;93263.00;;;17.10
41593;BMP180;28026;48.562;14.440;2023-03-23T02:14:37;93274.00;;;17.10
41593;BMP180;28026;48.562;14.440;2023-03-23T02:17:21;93279.00;;;17.10
41593;BMP180;28026;48.562;14.440;2023-03-23T02:20:18;93265.00;;;17.10
41593;BMP180;28026;48.562;14.440;2023-03-23T02:30:12;93276.00;;;17.10
41593;BMP180;28026;48.562;14.440;2023-03-23T02:35:50;93266.00;;;17.00
41593;BMP180;28026;48.562;14.440;2023-03-23T02:38:43;93268.00;;;17.00
41593;BMP180;28026;48.562;14.440;2023-03-23T02:41:30;93266.00;;;17.00
41593;BMP180;28026;48.562;14.440;2023-03-23T02:44:07;93266.00;;;17.10
41593;BMP180;28026;48.562;14.440;2023-03-23T02:46:41;93269.00;;;17.00
41593;BMP180;28026;48.562;14.440;2023-03-23T02:49:16;93277.00;;;17.10
41593;BMP180;28026;48.562;14.440;2023-03-23T02:51:50;93274.00;;;17.10
41593;BMP180;28026;48.562;14.440;2023-03-23T02:54:24;93279.00;;;17.10
41593;BMP180;28026;48.562;14.440;2023-03-23T02:56:57;93274.00;;;17.00
41593;BMP180;28026;48.562;14.440;2023-03-23T02:59:28;93281.00;;;17.00
41593;BMP180;28026;48.562;14.440;2023-03-23T03:04:54;93278.00;;;17.00
41593;BMP180;28026;48.562;14.440;2023-03-23T03:11:09;93272.00;;;17.00
41593;BMP180;28026;48.562;14.440;2023-03-23T03:13:55;93274.00;;;17.00
41593;BMP180;28026;48.562;14.440;2023-03-23T03:16:53;93268.00;;;17.00
41593;BMP180;28026;48.562;14.440;2023-03-23T03:19:46;93278.00;;;17.00
41593;BMP180;28026;48.562;14.440;2023-03-23T03:22:21;93275.00;;;17.00
41593;BMP180;28026;48.562;14.440;2023-03-23T03:24:57;93278.00;;;17.00
41593;BMP180;28026;48.562;14.440;2023-03-23T03:27:29;93275.00;;;17.00
41593;BMP180;28026;48.562;14.440;2023-03-23T03:30:06;93280.00;;;17.00
41593;BMP180;28026;48.562;14.440;2023-03-23T03:32:48;93273.00;;;17.00
41593;BMP180;28026;48.562;14.440;2023-03-23T03:35:24;93276.00;;;17.00
41593;BMP180;28026;48.562;14.440;2023-03-23T03:37:55;93279.00;;;17.00
41593;BMP180;28026;48.562;14.440;2023-03-23T03:40:28;93282.00;;;17.00
41593;BMP180;28026;48.562;14.440;2023-03-23T03:42:59;93271.00;;;17.00
41593;BMP180;28026;48.562;14.440;2023-03-23T03:45:30;93276.00;;;17.00
41593;BMP180;28026;48.562;14.440;2023-03-23T03:48:01;93274.00;;;17.00
41593;BMP180;28026;48.562;14.440;2023-03-23T03:50:32;93271.00;;;17.00
41593;BMP180;28026;48.562;14.440;2023-03-23T03:53:04;93270.00;;;17.00
41593;BMP180;28026;48.562;14.440;2023-03-23T03:55:36;93279.00;;;17.00
41593;BMP180;28026;48.562;14.440;2023-03-23T03:58:08;93277.00;;;17.00
41593;BMP180;28026;48.562;14.440;2023-03-23T04:00:40;93272.00;;;17.00
41593;BMP180;28026;48.562;14.440;2023-03-23T04:03:11;93264.00;;;17.00
41593;BMP180;28026;48.562;14.440;2023-03-23T04:05:42;93272.00;;;17.00
41593;BMP180;28026;48.562;14.440;2023-03-23T04:08:15;93276.00;;;17.00
41593;BMP180;28026;48.562;14.440;2023-03-23T04:10:48;93269.00;;;17.00
41593;BMP180;28026;48.562;14.440;2023-03-23T04:13:20;93270.00;;;17.00
41593;BMP180;28026;48.562;14.440;2023-03-23T04:15:51;93274.00;;;17.00
41593;BMP180;28026;48.562;14.440;2023-03-23T04:18:22;93279.00;;;17.00
41593;BMP180;28026;48.562;14.440;2023-03-23T04:20:54;93279.00;;;17.00
41593;BMP180;28026;48.562;14.440;2023-03-23T04:23:31;93278.00;;;17.00
41593;BMP180;28026;48.562;14.440;2023-03-23T04:26:04;93281.00;;;17.00
41593;BMP180;28026;48.562;14.440;2023-03-23T04:28:35;93284.00;;;17.00
41593;BMP180;28026;48.562;14.440;2023-03-23T04:31:06;93274.00;;;17.00
41593;BMP180;28026;48.562;14.440;2023-03-23T04:33:37;93283.00;;;17.00
41593;BMP180;28026;48.562;14.440;2023-03-23T04:36:11;93285.00;;;17.00
41593;BMP180;28026;48.562;14.440;2023-03-23T04:38:42;93287.00;;;16.90
41593;BMP180;28026;48.562;14.440;2023-03-23T04:41:13;93276.00;;;16.90
41593;BMP180;28026;48.562;14.440;2023-03-23T04:43:44;93282.00;;;16.90
41593;BMP180;28026;48.562;14.440;2023-03-23T04:46:15;93293.00;;;16.80
41593;BMP180;28026;48.562;14.440;2023-03-23T04:48:48;93294.00;;;16.80
41593;BMP180;28026;48.562;14.440;2023-03-23T04:51:19;93292.00;;;16.90
41593;BMP180;28026;48.562;14.440;2023-03-23T04:53:50;93294.00;;;16.80
41593;BMP180;28026;48.562;14.440;2023-03-23T04:56:21;93293.00;;;16.80
41593;BMP180;28026;48.562;14.440;2023-03-23T04:58:52;93298.00;;;16.80
41593;BMP180;28026;48.562;14.440;2023-03-23T05:01:23;93300.00;;;16.90
41593;BMP180;28026;48.562;14.440;2023-03-23T05:03:54;93296.00;;;16.80
41593;BMP180;28026;48.562;14.440;2023-03-23T05:06:24;93302.00;;;16.90
41593;BMP180;28026;48.562;14.440;2023-03-23T05:08:56;93298.00;;;16.80
41593;BMP180;28026;48.562;14.440;2023-03-23T05:11:26;93310.00;;;16.90
41593;BMP180;28026;48.562;14.440;2023-03-23T05:13:57;93303.00;;;16.90
41593;BMP180;28026;48.562;14.440;2023-03-23T05:16:28;93310.00;;;16.90
41593;BMP180;28026;48.562;14.440;2023-03-23T05:19:00;93314.00;;;16.90
41593;BMP180;28026;48.562;14.440;2023-03-23T05:21:31;93321.00;;;16.90
41593;BMP180;28026;48.562;14.440;2023-03-23T05:24:03;93315.00;;;16.90
41593;BMP180;28026;48.562;14.440;2023-03-23T05:26:34;93319.00;;;16.90
41593;BMP180;28026;48.562;14.440;2023-03-23T05:29:05;93323.00;;;16.90
41593;BMP180;28026;48.562;14.440;2023-03-23T05:31:36;93331.00;;;16.90
41593;BMP180;28026;48.562;14.440;2023-03-23T05:34:07;93337.00;;;16.90
41593;BMP180;28026;48.562;14.440;2023-03-23T05:36:38;93317.00;;;16.90
41593;BMP180;28026;48.562;14.440;2023-03-23T05:39:11;93328.00;;;16.90
41593;BMP180;28026;48.562;14.440;2023-03-23T05:41:43;93317.00;;;17.00
41593;BMP180;28026;48.562;14.440;2023-03-23T05:44:14;93324.00;;;17.00
41593;BMP180;28026;48.562;14.440;2023-03-23T05:46:45;93332.00;;;17.00
41593;BMP180;28026;48.562;14.440;2023-03-23T05:49:16;93323.00;;;17.00
41593;BMP180;28026;48.562;14.440;2023-03-23T05:51:48;93334.00;;;17.10
41593;BMP180;28026;48.562;14.440;2023-03-23T05:54:20;93334.00;;;17.10
41593;BMP180;28026;48.562;14.440;2023-03-23T05:56:51;93332.00;;;17.10
41593;BMP180;28026;48.562;14.440;2023-03-23T05:59:23;93330.00;;;17.20
41593;BMP180;28026;48.562;14.440;2023-03-23T06:01:54;93339.00;;;17.20
41593;BMP180;28026;48.562;14.440;2023-03-23T06:04:26;93335.00;;;17.20
41593;BMP180;28026;48.562;14.440;2023-03-23T06:06:57;93347.00;;;17.20
41593;BMP180;28026;48.562;14.440;2023-03-23T06:09:28;93343.00;;;17.30
41593;BMP180;28026;48.562;14.440;2023-03-23T06:11:59;93349.00;;;17.30
41593;BMP180;28026;48.562;14.440;2023-03-23T06:14:30;93341.00;;;17.40
41593;BMP180;28026;48.562;14.440;2023-03-23T06:17:02;93353.00;;;17.40
41593;BMP180;28026;48.562;14.440;2023-03-23T06:19:33;93352.00;;;17.40
41593;BMP180;28026;48.562;14.440;2023-03-23T06:22:04;93350.00;;;17.50
41593;BMP180;28026;48.562;14.440;2023-03-23T06:24:36;93359.00;;;17.50
41593;BMP180;28026;48.562;14.440;2023-03-23T06:27:07;93350.00;;;17.60
41593;BMP180;28026;48.562;14.440;2023-03-23T06:29:39;93358.00;;;17.60
41593;BMP180;28026;48.562;14.440;2023-03-23T06:32:11;93361.00;;;17.70
41593;BMP180;28026;48.562;14.440;2023-03-23T06:34:43;93365.00;;;17.70
41593;BMP180;28026;48.562;14.440;2023-03-23T06:37:16;93355.00;;;17.80
41593;BMP180;28026;48.562;14.440;2023-03-23T06:39:48;93348.00;;;17.90
41593;BMP180;28026;48.562;14.440;2023-03-23T06:42:22;93351.00;;;17.90
41593;BMP180;28026;48.562;14.440;2023-03-23T06:44:54;93363.00;;;18.00
41593;BMP180;28026;48.562;14.440;2023-03-23T06:47:28;93371.00;;;18.10
41593;BMP180;28026;48.562;14.440;2023-03-23T06:50:02;93356.00;;;18.10
41593;BMP180;28026;48.562;14.440;2023-03-23T06:52:33;93363.00;;;18.20
41593;BMP180;28026;48.562;14.440;2023-03-23T06:55:04;93363.00;;;18.30
41593;BMP180;28026;48.562;14.440;2023-03-23T06:57:36;93357.00;;;18.30
41593;BMP180;28026;48.562;14.440;2023-03-23T07:00:08;93354.00;;;18.40
41593;BMP180;28026;48.562;14.440;2023-03-23T07:02:43;93364.00;;;18.50
41593;BMP180;28026;48.562;14.440;2023-03-23T07:05:14;93368.00;;;18.60
41593;BMP180;28026;48.562;14.440;2023-03-23T07:07:45;93376.00;;;18.70
41593;BMP180;28026;48.562;14.440;2023-03-23T07:10:17;93377.00;;;18.80
41593;BMP180;28026;48.562;14.440;2023-03-23T07:12:48;93383.00;;;18.90
41593;BMP180;28026;48.562;14.440;2023-03-23T07:15:21;93390.00;;;19.10
41593;BMP180;28026;48.562;14.440;2023-03-23T07:17:52;93384.00;;;19.30
41593;BMP180;28026;48.562;14.440;2023-03-23T07:20:24;93387.00;;;19.50
41593;BMP180;28026;48.562;14.440;2023-03-23T07:22:55;93388.00;;;19.60
41593;BMP180;28026;48.562;14.440;2023-03-23T07:25:26;93379.00;;;19.70
41593;BMP180;28026;48.562;14.440;2023-03-23T07:27:57;93387.00;;;19.80
41593;BMP180;28026;48.562;14.440;2023-03-23T07:30:29;93385.00;;;19.80
41593;BMP180;28026;48.562;14.440;2023-03-23T07:33:06;93373.00;;;19.80
41593;BMP180;28026;48.562;14.440;2023-03-23T07:35:38;93382.00;;;19.70
41593;BMP180;28026;48.562;14.440;2023-03-23T07:38:09;93380.00;;;19.70
41593;BMP180;28026;48.562;14.440;2023-03-23T07:40:41;93387.00;;;19.60
41593;BMP180;28026;48.562;14.440;2023-03-23T07:43:12;93387.00;;;19.60
41593;BMP180;28026;48.562;14.440;2023-03-23T07:45:42;93381.00;;;19.60
41593;BMP180;28026;48.562;14.440;2023-03-23T07:48:13;93385.00;;;19.60
41593;BMP180;28026;48.562;14.440;2023-03-23T07:50:44;93389.00;;;19.60
41593;BMP180;28026;48.562;14.440;2023-03-23T07:53:16;93384.00;;;19.80
41593;BMP180;28026;48.562;14.440;2023-03-23T07:55:47;93385.00;;;20.00
41593;BMP180;28026;48.562;14.440;2023-03-23T07:58:18;93390.00;;;20.40
41593;BMP180;28026;48.562;14.440;2023-03-23T08:00:52;93383.00;;;20.70
41593;BMP180;28026;48.562;14.440;2023-03-23T08:03:24;93382.00;;;20.80
41593;BMP180;28026;48.562;14.440;2023-03-23T08:05:59;93391.00;;;21.00
41593;BMP180;28026;48.562;14.440;2023-03-23T08:08:30;93382.00;;;21.10
41593;BMP180;28026;48.562;14.440;2023-03-23T08:11:01;93396.00;;;21.20
41593;BMP180;28026;48.562;14.440;2023-03-23T08:13:33;93392.00;;;21.20
41593;BMP180;28026;48.562;14.440;2023-03-23T08:16:05;93394.00;;;21.30
41593;BMP180;28026;48.562;14.440;2023-03-23T08:18:37;93396.00;;;21.50
41593;BMP180;28026;48.562;14.440;2023-03-23T08:21:09;93382.00;;;21.70
41593;BMP180;28026;48.562;14.440;2023-03-23T08:23:40;93391.00;;;21.70
41593;BMP180;28026;48.562;14.440;2023-03-23T08:26:12;93392.00;;;21.80
41593;BMP180;28026;48.562;14.440;2023-03-23T08:28:45;93394.00;;;22.00
41593;BMP180;28026;48.562;14.440;2023-03-23T08:31:16;93394.00;;;22.30
41593;BMP180;28026;48.562;14.440;2023-03-23T08:33:47;93401.00;;;22.50
41593;BMP180;28026;48.562;14.440;2023-03-23T08:36:19;93404.00;;;22.50
41593;BMP180;28026;48.562;14.440;2023-03-23T08:38:50;93390.00;;;22.20
41593;BMP180;28026;48.562;14.440;2023-03-23T08:41:22;93391.00;;;22.00
41593;BMP180;28026;48.562;14.440;2023-03-23T08:43:53;93398.00;;;21.90
41593;BMP180;28026;48.562;14.440;2023-03-23T08:46:24;93384.00;;;21.70
41593;BMP180;28026;48.562;14.440;2023-03-23T08:48:58;93377.00;;;21.60
41593;BMP180;28026;48.562;14.440;2023-03-23T08:51:28;93375.00;;;21.40
41593;BMP180;28026;48.562;14.440;2023-03-23T08:53:59;93361.00;;;21.50
41593;BMP180;28026;48.562;14.440;2023-03-23T08:56:30;93363.00;;;21.60
41593;BMP180;28026;48.562;14.440;2023-03-23T08:59:01;93364.00;;;21.70
41593;BMP180;28026;48.562;14.440;2023-03-23T09:01:32;93349.00;;;21.70
41593;BMP180;28026;48.562;14.440;2023-03-23T09:04:04;93358.00;;;21.60
41593;BMP180;28026;48.562;14.440;2023-03-23T09:06:36;93360.00;;;21.50
41593;BMP180;28026;48.562;14.440;2023-03-23T09:09:07;93362.00;;;21.60
41593;BMP180;28026;48.562;14.440;2023-03-23T09:11:39;93353.00;;;21.90
41593;BMP180;28026;48.562;14.440;2023-03-23T09:14:11;93363.00;;;22.10
41593;BMP180;28026;48.562;14.440;2023-03-23T09:16:42;93365.00;;;22.30
41593;BMP180;28026;48.562;14.440;2023-03-23T09:19:13;93368.00;;;22.40
41593;BMP180;28026;48.562;14.440;2023-03-23T09:21:44;93374.00;;;22.50
41593;BMP180;28026;48.562;14.440;2023-03-23T09:24:15;93372.00;;;22.50
41593;BMP180;28026;48.562;14.440;2023-03-23T09:26:47;93366.00;;;22.40
41593;BMP180;28026;48.562;14.440;2023-03-23T09:29:18;93369.00;;;22.40
41593;BMP180;28026;48.562;14.440;2023-03-23T09:31:49;93366.00;;;22.70
41593;BMP180;28026;48.562;14.440;2023-03-23T09:34:20;93371.00;;;22.90
41593;BMP180;28026;48.562;14.440;2023-03-23T09:36:51;93359.00;;;23.00
41593;BMP180;28026;48.562;14.440;2023-03-23T09:39:22;93364.00;;;23.10
41593;BMP180;28026;48.562;14.440;2023-03-23T09:45:30;93359.00;;;23.10
41593;BMP180;28026;48.562;14.440;2023-03-23T09:48:49;93354.00;;;23.10
41593;BMP180;28026;48.562;14.440;2023-03-23T09:51:47;93355.00;;;23.00
41593;BMP180;28026;48.562;14.440;2023-03-23T09:54:31;93340.00;;;23.10
41593;BMP180;28026;48.562;14.440;2023-03-23T10:00:46;93355.00;;;23.10
41593;BMP180;28026;48.562;14.440;2023-03-23T10:03:35;93360.00;;;23.20
41593;BMP180;28026;48.562;14.440;2023-03-23T10:06:15;93353.00;;;23.20
41593;BMP180;28026;48.562;14.440;2023-03-23T10:08:52;93356.00;;;23.20
41593;BMP180;28026;48.562;14.440;2023-03-23T10:11:51;93358.00;;;23.10
41593;BMP180;28026;48.562;14.440;2023-03-23T10:15:24;93352.00;;;23.00
41593;BMP180;28026;48.562;14.440;2023-03-23T10:18:12;93351.00;;;22.90
41593;BMP180;28026;48.562;14.440;2023-03-23T10:21:00;93340.00;;;22.90
41593;BMP180;28026;48.562;14.440;2023-03-23T10:23:49;93350.00;;;22.90
41593;BMP180;28026;48.562;14.440;2023-03-23T10:27:25;93339.00;;;22.90
41593;BMP180;28026;48.562;14.440;2023-03-23T10:29:58;93344.00;;;23.10
41593;BMP180;28026;48.562;14.440;2023-03-23T10:32:56;93341.00;;;23.30
41593;BMP180;28026;48.562;14.440;2023-03-23T10:38:56;93336.00;;;23.50
41593;BMP180;28026;48.562;14.440;2023-03-23T10:41:32;93341.00;;;23.50
41593;BMP180;28026;48.562;14.440;2023-03-23T10:44:21;93335.00;;;23.60
41593;BMP180;28026;48.562;14.440;2023-03-23T10:47:06;93338.00;;;23.60
41593;BMP180;28026;48.562;14.440;2023-03-23T10:49:46;93326.00;;;23.70
41593;BMP180;28026;48.562;14.440;2023-03-23T10:52:29;93324.00;;;24.10
41593;BMP180;28026;48.562;14.440;2023-03-23T10:58:05;93330.00;;;24.70
41593;BMP180;28026;48.562;14.440;2023-03-23T11:00:46;93330.00;;;24.80
41593;BMP180;28026;48.562;14.440;2023-03-23T11:03:39;93334.00;;;25.00
41593;BMP180;28026;48.562;14.440;2023-03-23T11:06:22;93345.00;;;25.10
41593;BMP180;28026;48.562;14.440;2023-03-23T11:09:15;93331.00;;;25.10
41593;BMP180;28026;48.562;14.440;2023-03-23T11:11:54;93342.00;;;25.20
41593;BMP180;28026;48.562;14.440;2023-03-23T11:14:30;93335.00;;;25.40
41593;BMP180;28026;48.562;14.440;2023-03-23T11:17:18;93324.00;;;25.60
41593;BMP180;28026;48.562;14.440;2023-03-23T11:19:55;93336.00;;;25.80
41593;BMP180;28026;48.562;14.440;2023-03-23T11:22:28;93331.00;;;25.90
41593;BMP180;28026;48.562;14.440;2023-03-23T11:25:05;93334.00;;;25.90
41593;BMP180;28026;48.562;14.440;2023-03-23T11:27:38;93326.00;;;26.10
41593;BMP180;28026;48.562;14.440;2023-03-23T11:30:30;93332.00;;;26.20
41593;BMP180;28026;48.562;14.440;2023-03-23T11:33:02;93339.00;;;26.30
41593;BMP180;28026;48.562;14.440;2023-03-23T11:35:33;93324.00;;;26.40
41593;BMP180;28026;48.562;14.440;2023-03-23T11:38:05;93340.00;;;26.50
41593;BMP180;28026;48.562;14.440;2023-03-23T11:40:49;93338.00;;;26.40
41593;BMP180;28026;48.562;14.440;2023-03-23T11:43:24;93339.00;;;26.30
41593;BMP180;28026;48.562;14.440;2023-03-23T11:46:05;93343.00;;;26.10
41593;BMP180;28026;48.562;14.440;2023-03-23T11:49:02;93334.00;;;26.00
41593;BMP180;28026;48.562;14.440;2023-03-23T11:52:00;93343.00;;;26.10
41593;BMP180;28026;48.562;14.440;2023-03-23T11:55:13;93342.00;;;26.00
41593;BMP180;28026;48.562;14.440;2023-03-23T11:57:48;93336.00;;;25.80
41593;BMP180;28026;48.562;14.440;2023-03-23T12:00:21;93338.00;;;25.80
41593;BMP180;28026;48.562;14.440;2023-03-23T12:16:11;93337.00;;;25.30
41593;BMP180;28026;48.562;14.440;2023-03-23T12:19:13;93341.00;;;25.20
41593;BMP180;28026;48.562;14.440;2023-03-23T12:22:20;93333.00;;;25.20
41593;BMP180;28026;48.562;14.440;2023-03-23T12:40:52;93317.00;;;26.00
41593;BMP180;28026;48.562;14.440;2023-03-23T12:46:36;93322.00;;;26.20
41593;BMP180;28026;48.562;14.440;2023-03-23T12:49:38;93321.00;;;26.50
41593;BMP180;28026;48.562;14.440;2023-03-23T12:52:18;93328.00;;;26.40
41593;BMP180;28026;48.562;14.440;2023-03-23T12:55:45;93322.00;;;26.50
41593;BMP180;28026;48.562;14.440;2023-03-23T12:58:26;93319.00;;;26.60
41593;BMP180;28026;48.562;14.440;2023-03-23T13:01:11;93320.00;;;26.40
41593;BMP180;28026;48.562;14.440;2023-03-23T13:04:10;93307.00;;;26.40
41593;BMP180;28026;48.562;14.440;2023-03-23T13:06:46;93309.00;;;26.40
41593;BMP180;28026;48.562;14.440;2023-03-23T13:12:51;93307.00;;;26.40
41593;BMP180;28026;48.562;14.440;2023-03-23T13:16:26;93308.00;;;26.30
41593;BMP180;28026;48.562;14.440;2023-03-23T13:19:28;93297.00;;;26.10
41593;BMP180;28026;48.562;14.440;2023-03-23T13:22:40;93298.00;;;26.10
41593;BMP180;28026;48.562;14.440;2023-03-23T13:25:46;93307.00;;;26.30
41593;BMP180;28026;48.562;14.440;2023-03-23T13:28:22;93310.00;;;26.30
41593;BMP180;28026;48.562;14.440;2023-03-23T13:31:13;93304.00;;;26.20
41593;BMP180;28026;48.562;14.440;2023-03-23T13:34:12;93296.00;;;26.10
41593;BMP180;28026;48.562;14.440;2023-03-23T13:37:05;93298.00;;;26.00
41593;BMP180;28026;48.562;14.440;2023-03-23T13:40:17;93300.00;;;25.80
41593;BMP180;28026;48.562;14.440;2023-03-23T13:42:59;93295.00;;;25.70
41593;BMP180;28026;48.562;14.440;2023-03-23T13:50:59;93308.00;;;25.40
41593;BMP180;28026;48.562;14.440;2023-03-23T13:53:47;93310.00;;;25.40
41593;BMP180;28026;48.562;14.440;2023-03-23T13:56:40;93302.00;;;25.30
41593;BMP180;28026;48.562;14.440;2023-03-23T13:59:34;93303.00;;;25.20
41593;BMP180;28026;48.562;14.440;2023-03-23T14:02:40;93301.00;;;25.10
41593;BMP180;28026;48.562;14.440;2023-03-23T14:10:52;93282.00;;;25.10
41593;BMP180;28026;48.562;14.440;2023-03-23T14:19:29;93289.00;;;24.80
41593;BMP180;28026;48.562;14.440;2023-03-23T14:22:01;93293.00;;;24.70
41593;BMP180;28026;48.562;14.440;2023-03-23T14:24:40;93295.00;;;24.60
41593;BMP180;28026;48.562;14.440;2023-03-23T14:27:23;93284.00;;;24.60
41593;BMP180;28026;48.562;14.440;2023-03-23T14:30:05;93288.00;;;24.60
41593;BMP180;28026;48.562;14.440;2023-03-23T14:32:37;93285.00;;;24.60
41593;BMP180;28026;48.562;14.440;2023-03-23T14:35:19;93280.00;;;24.70
41593;BMP180;28026;48.562;14.440;2023-03-23T14:38:04;93287.00;;;24.60
41593;BMP180;28026;48.562;14.440;2023-03-23T14:40:35;93286.00;;;24.50
41593;BMP180;28026;48.562;14.440;2023-03-23T14:43:09;93290.00;;;24.60
41593;BMP180;28026;48.562;14.440;2023-03-23T14:45:51;93284.00;;;24.70
41593;BMP180;28026;48.562;14.440;2023-03-23T14:48:23;93281.00;;;24.70
41593;BMP180;28026;48.562;14.440;2023-03-23T14:51:04;93279.00;;;24.70
41593;BMP180;28026;48.562;14.440;2023-03-23T14:53:40;93291.00;;;24.80
41593;BMP180;28026;48.562;14.440;2023-03-23T14:56:17;93283.00;;;24.80
41593;BMP180;28026;48.562;14.440;2023-03-23T14:58:51;93301.00;;;24.80
41593;BMP180;28026;48.562;14.440;2023-03-23T15:01:30;93294.00;;;24.70
41593;BMP180;28026;48.562;14.440;2023-03-23T15:04:21;93293.00;;;24.70
41593;BMP180;28026;48.562;14.440;2023-03-23T15:07:02;93290.00;;;24.50
41593;BMP180;28026;48.562;14.440;2023-03-23T15:09:41;93290.00;;;24.40
41593;BMP180;28026;48.562;14.440;2023-03-23T15:12:24;93263.00;;;24.40
41593;BMP180;28026;48.562;14.440;2023-03-23T15:15:06;93283.00;;;24.30
41593;BMP180;28026;48.562;14.440;2023-03-23T15:17:47;93265.00;;;24.20
41593;BMP180;28026;48.562;14.440;2023-03-23T15:20:31;93269.00;;;24.20
41593;BMP180;28026;48.562;14.440;2023-03-23T15:23:26;93273.00;;;24.10
41593;BMP180;28026;48.562;14.440;2023-03-23T15:26:05;93272.00;;;24.10
41593;BMP180;28026;48.562;14.440;2023-03-23T15:28:40;93271.00;;;24.10
41593;BMP180;28026;48.562;14.440;2023-03-23T15:31:11;93262.00;;;24.10
41593;BMP180;28026;48.562;14.440;2023-03-23T15:33:42;93265.00;;;23.90
41593;BMP180;28026;48.562;14.440;2023-03-23T15:36:17;93268.00;;;23.90
41593;BMP180;28026;48.562;14.440;2023-03-23T15:38:48;93269.00;;;23.80
41593;BMP180;28026;48.562;14.440;2023-03-23T15:41:30;93270.00;;;23.70
41593;BMP180;28026;48.562;14.440;2023-03-23T15:44:21;93280.00;;;23.70
41593;BMP180;28026;48.562;14.440;2023-03-23T15:47:18;93284.00;;;23.60
41593;BMP180;28026;48.562;14.440;2023-03-23T15:52:57;93287.00;;;23.60
41593;BMP180;28026;48.562;14.440;2023-03-23T15:55:36;93283.00;;;23.70
41593;BMP180;28026;48.562;14.440;2023-03-23T15:58:11;93294.00;;;23.80
41593;BMP180;28026;48.562;14.440;2023-03-23T16:00:44;93293.00;;;23.80
41593;BMP180;28026;48.562;14.440;2023-03-23T16:03:27;93303.00;;;23.90
41593;BMP180;28026;48.562;14.440;2023-03-23T16:06:04;93294.00;;;23.90
41593;BMP180;28026;48.562;14.440;2023-03-23T16:08:36;93293.00;;;23.80
41593;BMP180;28026;48.562;14.440;2023-03-23T16:11:12;93310.00;;;23.80
41593;BMP180;28026;48.562;14.440;2023-03-23T16:13:45;93310.00;;;23.80
41593;BMP180;28026;48.562;14.440;2023-03-23T16:16:27;93305.00;;;23.80
41593;BMP180;28026;48.562;14.440;2023-03-23T16:19:01;93306.00;;;23.80